Terminal Aerodrome Forecast
Issued by NWS

Home | Current Version | Previous Version | Text Only | Print | Product List | Glossary On
Versions: 1 2 3 4 5 6 7 8 9 10 11 12 13 14 15 16 17
000
FTUS46 KMTR 281400 AAA
TAFSJC
TAF AMD
KSJC 281449Z 2815/0112 27005KT P6SM VCSH BKN030 OVC040
      TEMPO 2815/2819 -SHRA BKN025
     FM281900 32007KT P6SM VCSH BKN050
      TEMPO 2819/2823 SHRA BKN025
     FM010500 19003KT P6SM SCT040 BKN050=

USA.gov is the U.S. government's official web portal to all federal, state and local government web resources and services.